createdAt,value
2017-08-05T00:00:16.551Z,1004.0
2017-08-05T00:01:18.206Z,1004.0
2017-08-05T00:02:19.615Z,1004.0
2017-08-05T00:03:21.023Z,1004.0
2017-08-05T00:04:22.528Z,1004.0
2017-08-05T00:05:24.328Z,1004.0
2017-08-05T00:06:25.728Z,1004.0
2017-08-05T00:07:27.290Z,1004.0
2017-08-05T00:08:28.690Z,1004.0
2017-08-05T00:09:30.343Z,1004.0
2017-08-05T00:10:31.751Z,1004.0
2017-08-05T00:11:33.223Z,1004.1
2017-08-05T00:12:34.623Z,1004.0
2017-08-05T00:13:36.103Z,1004.0
2017-08-05T00:14:37.909Z,1004.0
2017-08-05T00:15:39.393Z,1003.9
2017-08-05T00:16:40.800Z,1003.9
2017-08-05T00:17:42.274Z,1003.9
2017-08-05T00:18:43.680Z,1003.8
2017-08-05T00:19:45.160Z,1003.8
2017-08-05T00:20:46.560Z,1003.8
2017-08-05T00:21:47.963Z,1003.8
2017-08-05T00:22:49.479Z,1003.8
2017-08-05T00:23:50.884Z,1003.8
2017-08-05T00:24:52.294Z,1003.7
2017-08-05T00:25:53.806Z,1003.7
2017-08-05T00:26:55.254Z,1003.7
2017-08-05T00:27:56.881Z,1003.7
2017-08-05T00:28:58.289Z,1003.5
2017-08-05T00:29:59.797Z,1003.5
2017-08-05T00:31:01.200Z,1003.5
2017-08-05T00:32:02.863Z,1003.4
2017-08-05T00:33:04.252Z,1003.4
2017-08-05T00:34:05.750Z,1003.3
2017-08-05T00:35:07.134Z,1003.2
2017-08-05T00:36:08.612Z,1003.2
2017-08-05T00:37:10.014Z,1003.1
2017-08-05T00:38:11.492Z,1003.0
2017-08-05T00:39:12.896Z,1003.0
2017-08-05T00:40:14.374Z,1002.9
2017-08-05T00:41:16.231Z,1002.9
2017-08-05T00:42:17.868Z,1002.8
2017-08-05T00:43:19.281Z,1002.8
2017-08-05T00:44:20.746Z,1002.7
2017-08-05T00:45:22.163Z,1002.7
2017-08-05T00:46:23.580Z,1002.7
2017-08-05T00:47:25.066Z,1002.7
2017-08-05T00:48:26.519Z,1002.7
2017-08-05T00:49:27.904Z,1002.6
2017-08-05T00:50:29.394Z,1002.6
2017-08-05T00:51:30.815Z,1002.6
2017-08-05T00:52:32.219Z,1002.6
2017-08-05T00:53:33.727Z,1002.6
2017-08-05T00:54:35.127Z,1002.5
2017-08-05T00:55:36.660Z,1002.5
2017-08-05T00:56:38.059Z,1002.5
2017-08-05T00:57:39.677Z,1002.5
2017-08-05T00:58:41.081Z,1002.5
2017-08-05T00:59:42.510Z,1002.6
2017-08-05T01:00:43.947Z,1002.5
2017-08-05T01:01:45.441Z,1002.5
2017-08-05T01:02:46.861Z,1002.5
2017-08-05T01:03:48.523Z,1002.5
2017-08-05T01:04:49.929Z,1002.6
2017-08-05T01:05:51.404Z,1002.6
2017-08-05T01:06:52.807Z,1002.5
2017-08-05T01:07:54.316Z,1002.5
2017-08-05T01:08:55.718Z,1002.5
2017-08-05T01:09:57.403Z,1002.5
2017-08-05T01:10:58.800Z,1002.5
2017-08-05T01:12:00.454Z,1002.4
2017-08-05T01:13:01.867Z,1002.3
2017-08-05T01:14:03.336Z,1002.3
2017-08-05T01:15:04.772Z,1002.3
2017-08-05T01:16:06.423Z,1002.2
2017-08-05T01:17:07.824Z,1002.1
2017-08-05T01:18:09.301Z,1002.1
2017-08-05T01:19:10.706Z,1002.0
2017-08-05T01:20:12.184Z,1002.0
2017-08-05T01:21:13.584Z,1001.9
2017-08-05T01:22:15.085Z,1001.8
2017-08-05T01:23:16.488Z,1001.8
2017-08-05T01:24:17.958Z,1001.7
2017-08-05T01:25:19.358Z,1001.7
2017-08-05T01:26:20.860Z,1001.7
2017-08-05T01:27:22.266Z,1001.6
2017-08-05T01:28:23.982Z,1001.6
2017-08-05T01:29:25.377Z,1001.5
2017-08-05T01:30:26.995Z,1001.4
2017-08-05T01:31:28.469Z,1001.4
2017-08-05T01:32:30.203Z,1001.3
2017-08-05T01:33:31.604Z,1001.2
2017-08-05T01:34:33.177Z,1001.2
2017-08-05T01:35:34.965Z,1001.1
2017-08-05T01:36:36.453Z,1001.0
2017-08-05T01:37:37.857Z,1001.0
2017-08-05T01:38:39.413Z,1000.9
2017-08-05T01:39:40.816Z,1000.9
2017-08-05T01:40:42.428Z,1001.0
2017-08-05T01:41:43.866Z,1001.0
2017-08-05T01:42:45.278Z,1001.1
2017-08-05T01:43:47.768Z,1001.1
2017-08-05T01:44:49.173Z,1001.2
2017-08-05T01:45:51.022Z,1001.2
2017-08-05T01:46:55.284Z,1001.3
2017-08-05T01:47:56.682Z,1001.4
2017-08-05T01:48:58.091Z,1001.5
2017-08-05T01:50:00.090Z,1001.6
2017-08-05T01:51:01.492Z,1001.7
2017-08-05T01:52:02.919Z,1001.8
2017-08-05T01:53:04.424Z,1001.9
2017-08-05T01:54:05.830Z,1001.9
2017-08-05T01:55:07.297Z,1002.0
2017-08-05T01:56:08.710Z,1002.0
2017-08-05T01:57:10.181Z,1002.1
2017-08-05T01:58:11.585Z,1002.2
2017-08-05T01:59:13.082Z,1002.3
2017-08-05T02:00:14.491Z,1002.4
2017-08-05T02:01:15.939Z,1002.4
2017-08-05T02:02:17.344Z,1002.5
2017-08-05T02:03:18.855Z,1002.6
2017-08-05T02:04:20.260Z,1002.7
2017-08-05T02:05:22.291Z,1002.8
2017-08-05T02:06:23.691Z,1002.9
2017-08-05T02:07:25.142Z,1003.0
2017-08-05T02:08:26.655Z,1003.1
2017-08-05T02:09:28.151Z,1003.2
2017-08-05T02:10:29.565Z,1003.2
2017-08-05T02:11:31.197Z,1003.3
2017-08-05T02:12:32.601Z,1003.4
2017-08-05T02:13:34.007Z,1003.5
2017-08-05T02:14:35.509Z,1003.6
2017-08-05T02:15:37.290Z,1003.7
2017-08-05T02:16:38.734Z,1003.8
2017-08-05T02:17:40.214Z,1003.8
2017-08-05T02:18:41.645Z,1003.9
2017-08-05T02:19:43.044Z,1003.9
2017-08-05T02:20:44.568Z,1004.0
2017-08-05T02:21:46.032Z,1004.1
2017-08-05T02:22:47.435Z,1004.2
2017-08-05T02:23:48.880Z,1004.2
2017-08-05T02:24:50.310Z,1004.2
2017-08-05T02:25:51.725Z,1004.3
2017-08-05T02:26:53.179Z,1004.3
2017-08-05T02:27:54.576Z,1004.3
2017-08-05T02:28:56.012Z,1004.3
2017-08-05T02:29:57.504Z,1004.4
2017-08-05T02:30:58.983Z,1004.5
2017-08-05T02:32:00.390Z,1004.5
2017-08-05T02:33:02.063Z,1004.5
2017-08-05T02:34:03.465Z,1004.6
2017-08-05T02:35:04.866Z,1004.7
2017-08-05T02:36:06.357Z,1004.7
2017-08-05T02:37:07.763Z,1004.8
2017-08-05T02:38:09.207Z,1004.8
2017-08-05T02:39:10.671Z,1004.9
2017-08-05T02:40:12.080Z,1004.9
2017-08-05T02:41:13.484Z,1005.0
2017-08-05T02:42:14.988Z,1005.1
2017-08-05T02:43:16.388Z,1005.1
2017-08-05T02:44:17.886Z,1005.1
2017-08-05T02:45:19.273Z,1005.2
2017-08-05T02:46:20.750Z,1005.2
2017-08-05T02:47:22.176Z,1005.3
2017-08-05T02:48:23.629Z,1005.3
2017-08-05T02:49:25.037Z,1005.4
2017-08-05T02:50:26.509Z,1005.4
2017-08-05T02:51:27.914Z,1005.5
2017-08-05T02:52:29.391Z,1005.5
2017-08-05T02:53:30.796Z,1005.6
2017-08-05T02:54:32.273Z,1005.7
2017-08-05T02:55:33.693Z,1005.7
2017-08-05T02:56:35.151Z,1005.8
2017-08-05T02:57:36.552Z,1005.8
2017-08-05T02:58:38.030Z,1005.9
2017-08-05T02:59:39.431Z,1005.8
2017-08-05T03:00:40.917Z,1005.9
2017-08-05T03:01:42.353Z,1005.9
2017-08-05T03:02:43.747Z,1006.0
2017-08-05T03:03:45.236Z,1006.0
2017-08-05T03:04:46.637Z,1006.0
2017-08-05T03:05:48.052Z,1006.0
2017-08-05T03:06:49.553Z,1006.0
2017-08-05T03:07:50.964Z,1006.1
2017-08-05T03:08:52.414Z,1006.1
2017-08-05T03:09:53.881Z,1006.2
2017-08-05T03:10:55.304Z,1006.2
2017-08-05T03:11:56.759Z,1006.2
2017-08-05T03:12:58.563Z,1006.3
2017-08-05T03:14:00.046Z,1006.3
2017-08-05T03:15:01.840Z,1006.3
2017-08-05T03:16:03.333Z,1006.3
2017-08-05T03:17:04.739Z,1006.3
2017-08-05T03:18:06.216Z,1006.4
2017-08-05T03:19:07.617Z,1006.3
2017-08-05T03:20:09.018Z,1006.3
2017-08-05T03:21:10.534Z,1006.2
2017-08-05T03:22:12.707Z,1006.1
2017-08-05T03:23:14.144Z,1006.0
2017-08-05T03:24:15.674Z,1006.0
2017-08-05T03:25:17.458Z,1006.0
2017-08-05T03:26:18.874Z,1006.0
2017-08-05T03:27:20.418Z,1005.9
2017-08-05T03:28:21.837Z,1005.9
2017-08-05T03:29:23.244Z,1005.9
2017-08-05T03:30:24.754Z,1005.9
2017-08-05T03:31:26.156Z,1005.9
2017-08-05T03:32:27.611Z,1005.9
2017-08-05T03:33:29.016Z,1005.9
2017-08-05T03:34:30.421Z,1005.8
2017-08-05T03:35:31.946Z,1005.7
2017-08-05T03:36:33.349Z,1005.6
2017-08-05T03:37:34.779Z,1005.6
2017-08-05T03:38:36.356Z,1005.6
2017-08-05T03:39:37.769Z,1005.6
2017-08-05T03:40:39.172Z,1005.5
2017-08-05T03:41:40.887Z,1005.5
2017-08-05T03:42:42.337Z,1005.5
2017-08-05T03:43:43.804Z,1005.4
2017-08-05T03:44:45.423Z,1005.2
2017-08-05T03:45:46.843Z,1005.1
2017-08-05T03:46:48.245Z,1005.0
2017-08-05T03:47:49.967Z,1004.8
2017-08-05T03:48:51.371Z,1004.7
2017-08-05T03:49:52.801Z,1004.6
2017-08-05T03:50:54.457Z,1004.5
2017-08-05T03:51:55.859Z,1004.4
2017-08-05T03:52:57.540Z,1004.4
2017-08-05T03:53:58.943Z,1004.3
2017-08-05T03:55:00.349Z,1004.3
2017-08-05T03:56:02.067Z,1004.2
2017-08-05T03:57:03.474Z,1004.2
2017-08-05T03:58:04.870Z,1004.2
2017-08-05T03:59:06.599Z,1004.1
2017-08-05T04:00:08.005Z,1004.1
2017-08-05T04:01:09.409Z,1004.1
2017-08-05T04:02:11.128Z,1004.1
2017-08-05T04:03:12.531Z,1004.1
2017-08-05T04:04:13.939Z,1004.1
2017-08-05T04:05:15.650Z,1004.1
2017-08-05T04:06:17.055Z,1004.1
2017-08-05T04:07:18.459Z,1004.1
2017-08-05T04:08:20.179Z,1004.1
2017-08-05T04:09:21.643Z,1004.1
2017-08-05T04:10:23.032Z,1004.2
2017-08-05T04:11:24.710Z,1004.2
2017-08-05T04:12:26.122Z,1004.2
2017-08-05T04:13:27.523Z,1004.2
2017-08-05T04:14:29.220Z,1004.3
2017-08-05T04:15:30.635Z,1004.2
2017-08-05T04:16:32.066Z,1004.3
2017-08-05T04:17:33.751Z,1004.3
2017-08-05T04:18:35.176Z,1004.2
2017-08-05T04:19:36.580Z,1004.3
2017-08-05T04:20:38.272Z,1004.3
2017-08-05T04:21:39.681Z,1004.3
2017-08-05T04:22:41.090Z,1004.3
2017-08-05T04:23:42.814Z,1004.3
2017-08-05T04:24:44.234Z,1004.3
2017-08-05T04:25:45.617Z,1004.3
2017-08-05T04:26:47.325Z,1004.3
2017-08-05T04:27:48.734Z,1004.4
2017-08-05T04:28:50.140Z,1004.4
2017-08-05T04:29:51.863Z,1004.5
2017-08-05T04:30:53.323Z,1004.5
2017-08-05T04:31:54.935Z,1004.4
2017-08-05T04:32:56.342Z,1004.5
2017-08-05T04:33:58.020Z,1004.5
2017-08-05T04:34:59.431Z,1004.5
2017-08-05T04:36:01.143Z,1004.5
2017-08-05T04:37:02.547Z,1004.5
2017-08-05T04:38:04.196Z,1004.5
2017-08-05T04:39:05.593Z,1004.5
2017-08-05T04:40:07.010Z,1004.6
2017-08-05T04:41:08.720Z,1004.6
2017-08-05T04:42:10.125Z,1004.7
2017-08-05T04:43:11.572Z,1004.7
2017-08-05T04:44:13.264Z,1004.7
2017-08-05T04:45:14.712Z,1004.8
2017-08-05T04:46:16.101Z,1004.8
2017-08-05T04:47:17.772Z,1004.7
2017-08-05T04:48:19.182Z,1004.7
2017-08-05T04:49:20.581Z,1004.7
2017-08-05T04:50:22.334Z,1004.7
2017-08-05T04:51:23.740Z,1004.7
2017-08-05T04:52:25.159Z,1004.7
2017-08-05T04:53:26.734Z,1004.7
2017-08-05T04:54:28.133Z,1004.8
2017-08-05T04:55:29.540Z,1004.8
2017-08-05T04:56:31.149Z,1004.8
2017-08-05T04:57:32.592Z,1004.8
2017-08-05T04:58:33.992Z,1004.9
2017-08-05T04:59:35.674Z,1004.9
2017-08-05T05:00:37.105Z,1004.9
2017-08-05T05:01:38.506Z,1004.9
2017-08-05T05:02:40.204Z,1004.9
2017-08-05T05:03:41.611Z,1005.0
2017-08-05T05:04:43.046Z,1005.0
2017-08-05T05:05:44.748Z,1005.0
2017-08-05T05:06:46.134Z,1005.0
2017-08-05T05:07:47.804Z,1005.1
2017-08-05T05:08:49.210Z,1005.2
2017-08-05T05:09:51.377Z,1005.1
2017-08-05T05:10:52.776Z,1005.2
2017-08-05T05:11:54.395Z,1005.2
2017-08-05T05:12:55.802Z,1005.2
2017-08-05T05:13:57.473Z,1005.3
2017-08-05T05:14:58.876Z,1005.4
2017-08-05T05:16:00.283Z,1005.4
2017-08-05T05:17:01.688Z,1005.4
2017-08-05T05:18:03.098Z,1005.5
2017-08-05T05:19:04.711Z,1005.5
2017-08-05T05:20:06.105Z,1005.5
2017-08-05T05:21:08.460Z,1005.6
2017-08-05T05:22:09.876Z,1005.7
2017-08-05T05:23:11.464Z,1005.7
2017-08-05T05:24:12.905Z,1005.8
2017-08-05T05:25:14.547Z,1005.8
2017-08-05T05:26:15.955Z,1005.8
2017-08-05T05:27:17.632Z,1005.8
2017-08-05T05:28:19.037Z,1005.9
2017-08-05T05:29:20.732Z,1005.9
2017-08-05T05:30:22.135Z,1005.9
2017-08-05T05:31:23.804Z,1005.9
2017-08-05T05:32:25.209Z,1006.0
2017-08-05T05:33:26.903Z,1005.9
2017-08-05T05:34:28.338Z,1006.0
2017-08-05T05:35:29.854Z,1006.0
2017-08-05T05:36:31.437Z,1006.1
2017-08-05T05:37:32.848Z,1006.0
2017-08-05T05:38:34.317Z,1006.0
2017-08-05T05:39:36.015Z,1006.0
2017-08-05T05:40:37.456Z,1005.9
2017-08-05T05:41:38.867Z,1005.9
2017-08-05T05:42:40.476Z,1005.8
2017-08-05T05:43:41.917Z,1005.9
2017-08-05T05:44:43.319Z,1006.0
2017-08-05T05:45:45.029Z,1006.0
2017-08-05T05:46:46.438Z,1006.1
2017-08-05T05:47:48.076Z,1006.1
2017-08-05T05:48:49.485Z,1006.2
2017-08-05T05:49:51.168Z,1006.2
2017-08-05T05:50:52.575Z,1006.3
2017-08-05T05:51:54.260Z,1006.4
2017-08-05T05:52:55.659Z,1006.4
2017-08-05T05:53:57.345Z,1006.5
2017-08-05T05:54:58.752Z,1006.4
2017-08-05T05:56:00.186Z,1006.5
2017-08-05T05:57:01.860Z,1006.6
2017-08-05T05:58:03.302Z,1006.6
2017-08-05T05:59:04.705Z,1006.8
2017-08-05T06:00:06.383Z,1006.8
2017-08-05T06:01:07.819Z,1006.9
2017-08-05T06:02:09.226Z,1006.9
2017-08-05T06:03:10.655Z,1006.9
2017-08-05T06:04:12.058Z,1006.9
2017-08-05T06:05:13.972Z,1007.0
2017-08-05T06:06:15.372Z,1007.1
2017-08-05T06:07:16.896Z,1007.2
2017-08-05T06:08:18.285Z,1007.3
2017-08-05T06:09:19.963Z,1007.4
2017-08-05T06:10:21.388Z,1007.4
2017-08-05T06:11:22.796Z,1007.4
2017-08-05T06:12:24.555Z,1007.5
2017-08-05T06:13:25.965Z,1007.3
2017-08-05T06:14:27.372Z,1007.2
2017-08-05T06:15:29.015Z,1007.1
2017-08-05T06:16:30.422Z,1007.0
2017-08-05T06:17:31.831Z,1007.0
2017-08-05T06:18:33.335Z,1007.0
2017-08-05T06:19:34.758Z,1006.9
2017-08-05T06:20:36.169Z,1006.8
2017-08-05T06:21:37.861Z,1006.7
2017-08-05T06:22:39.274Z,1006.7
2017-08-05T06:23:40.690Z,1006.8
2017-08-05T06:24:42.386Z,1006.8
2017-08-05T06:25:43.789Z,1006.9
2017-08-05T06:26:45.200Z,1006.9
2017-08-05T06:27:46.726Z,1006.9
2017-08-05T06:28:48.130Z,1007.0
2017-08-05T06:29:49.544Z,1006.9
2017-08-05T06:30:51.230Z,1006.9
2017-08-05T06:31:52.647Z,1006.9
2017-08-05T06:32:54.323Z,1006.9
2017-08-05T06:33:55.730Z,1006.9
2017-08-05T06:34:57.842Z,1006.8
2017-08-05T06:35:59.247Z,1006.8
2017-08-05T06:37:00.731Z,1006.9
2017-08-05T06:38:02.723Z,1006.9
2017-08-05T06:39:04.132Z,1006.9
2017-08-05T06:40:05.626Z,1006.9
2017-08-05T06:41:07.073Z,1006.8
2017-08-05T06:42:08.524Z,1006.9
2017-08-05T06:43:10.156Z,1006.9
2017-08-05T06:44:11.563Z,1006.9
2017-08-05T06:45:13.320Z,1007.0
2017-08-05T06:46:14.707Z,1007.0
2017-08-05T06:47:16.113Z,1007.0
2017-08-05T06:48:17.770Z,1007.1
2017-08-05T06:49:19.189Z,1007.0
2017-08-05T06:50:20.592Z,1007.1
2017-08-05T06:51:22.085Z,1007.1
2017-08-05T06:52:23.497Z,1007.1
2017-08-05T06:53:25.186Z,1007.1
2017-08-05T06:54:26.656Z,1007.1
2017-08-05T06:55:28.279Z,1007.1
2017-08-05T06:56:29.683Z,1007.1
2017-08-05T06:57:31.091Z,1007.0
2017-08-05T06:58:32.582Z,1006.9
2017-08-05T06:59:34.009Z,1006.9
2017-08-05T07:00:35.408Z,1006.9
2017-08-05T07:01:37.107Z,1006.9
2017-08-05T07:02:38.512Z,1006.8
2017-08-05T07:03:40.322Z,1006.8
2017-08-05T07:04:41.728Z,1006.7
2017-08-05T07:05:43.276Z,1006.7
2017-08-05T07:06:44.701Z,1006.6
2017-08-05T07:07:46.364Z,1006.6
2017-08-05T07:08:47.798Z,1006.5
2017-08-05T07:09:49.457Z,1006.4
2017-08-05T07:10:50.864Z,1006.2
2017-08-05T07:11:52.540Z,1006.1
2017-08-05T07:12:53.949Z,1006.0
2017-08-05T07:13:55.656Z,1005.9
2017-08-05T07:14:57.049Z,1005.9
2017-08-05T07:15:58.470Z,1005.9
2017-08-05T07:17:00.158Z,1005.9
2017-08-05T07:18:01.606Z,1006.0
2017-08-05T07:19:03.017Z,1006.0
2017-08-05T07:20:04.681Z,1006.1
2017-08-05T07:21:06.106Z,1006.0
2017-08-05T07:22:07.513Z,1005.9
2017-08-05T07:23:09.202Z,1006.0
2017-08-05T07:24:10.611Z,1006.1
2017-08-05T07:25:12.014Z,1006.1
2017-08-05T07:26:13.565Z,1006.0
2017-08-05T07:27:14.975Z,1006.0
2017-08-05T07:28:16.648Z,1006.0
2017-08-05T07:29:18.098Z,1006.0
2017-08-05T07:30:19.731Z,1006.1
2017-08-05T07:31:21.127Z,1006.1
2017-08-05T07:32:22.535Z,1006.2
2017-08-05T07:33:24.229Z,1006.1
2017-08-05T07:34:25.636Z,1006.1
2017-08-05T07:35:27.065Z,1006.1
2017-08-05T07:36:28.746Z,1006.1
2017-08-05T07:37:30.408Z,1006.1
2017-08-05T07:38:31.821Z,1006.1
2017-08-05T07:39:33.507Z,1006.2
2017-08-05T07:40:34.915Z,1006.2
2017-08-05T07:41:36.322Z,1006.4
2017-08-05T07:42:37.999Z,1006.4
2017-08-05T07:43:39.403Z,1006.5
2017-08-05T07:44:40.807Z,1006.4
2017-08-05T07:45:42.368Z,1006.4
2017-08-05T07:46:43.780Z,1006.4
2017-08-05T07:47:45.206Z,1006.5
2017-08-05T07:48:46.640Z,1006.6
2017-08-05T07:49:48.050Z,1006.6
2017-08-05T07:50:49.521Z,1006.6
2017-08-05T07:51:50.918Z,1006.6
2017-08-05T07:52:52.620Z,1006.7
2017-08-05T07:53:54.033Z,1006.6
2017-08-05T07:54:55.700Z,1006.7
2017-08-05T07:55:57.116Z,1006.7
2017-08-05T07:56:58.779Z,1006.8
2017-08-05T07:58:00.209Z,1006.7
2017-08-05T07:59:01.874Z,1006.9
2017-08-05T08:00:03.287Z,1007.0
2017-08-05T08:01:04.945Z,1007.1
2017-08-05T08:02:06.357Z,1007.1
2017-08-05T08:03:08.031Z,1007.1
2017-08-05T08:04:09.481Z,1007.2
2017-08-05T08:05:11.121Z,1007.1
2017-08-05T08:06:12.538Z,1007.1
2017-08-05T08:07:13.959Z,1007.3
2017-08-05T08:08:15.442Z,1007.4
2017-08-05T08:09:17.239Z,1007.5
2017-08-05T08:10:18.658Z,1007.5
2017-08-05T08:11:20.189Z,1007.6
2017-08-05T08:12:21.603Z,1007.7
2017-08-05T08:13:23.011Z,1007.7
2017-08-05T08:14:24.497Z,1007.8
2017-08-05T08:15:25.907Z,1007.7
2017-08-05T08:16:27.317Z,1007.6
2017-08-05T08:17:28.836Z,1007.6
2017-08-05T08:18:30.246Z,1007.6
2017-08-05T08:19:31.654Z,1007.7
2017-08-05T08:20:33.136Z,1007.8
2017-08-05T08:21:34.542Z,1007.9
2017-08-05T08:22:36.335Z,1007.9
2017-08-05T08:23:37.863Z,1008.1
2017-08-05T08:24:39.275Z,1008.0
2017-08-05T08:25:40.691Z,1007.9
2017-08-05T08:26:42.183Z,1008.0
2017-08-05T08:27:43.615Z,1008.0
2017-08-05T08:28:45.266Z,1008.1
2017-08-05T08:29:46.675Z,1008.2
2017-08-05T08:30:48.115Z,1008.3
2017-08-05T08:31:49.520Z,1008.3
2017-08-05T08:32:50.943Z,1008.4
2017-08-05T08:33:52.425Z,1008.4
2017-08-05T08:34:53.831Z,1008.4
2017-08-05T08:35:55.244Z,1008.4
2017-08-05T08:36:56.745Z,1008.4
2017-08-05T08:37:58.154Z,1008.5
2017-08-05T08:38:59.563Z,1008.5
2017-08-05T08:40:01.067Z,1008.6
2017-08-05T08:41:02.473Z,1008.7
2017-08-05T08:42:03.880Z,1008.7
2017-08-05T08:43:05.393Z,1008.9
2017-08-05T08:44:06.798Z,1009.0
2017-08-05T08:45:08.271Z,1009.0
2017-08-05T08:46:09.679Z,1009.0
2017-08-05T08:47:11.155Z,1009.1
2017-08-05T08:48:12.563Z,1009.1
2017-08-05T08:49:13.969Z,1009.1
2017-08-05T08:50:15.478Z,1009.1
2017-08-05T08:51:17.268Z,1009.2
2017-08-05T08:52:18.726Z,1009.2
2017-08-05T08:53:20.212Z,1009.2
2017-08-05T08:54:21.614Z,1009.2
2017-08-05T08:55:23.088Z,1009.3
2017-08-05T08:56:24.495Z,1009.4
2017-08-05T08:57:25.907Z,1009.5
2017-08-05T08:58:27.410Z,1009.4
2017-08-05T08:59:28.884Z,1009.5
2017-08-05T09:00:30.281Z,1009.6
2017-08-05T09:01:31.731Z,1009.6
2017-08-05T09:02:33.137Z,1009.7
2017-08-05T09:03:34.547Z,1009.6
2017-08-05T09:04:36.066Z,1009.6
2017-08-05T09:05:37.480Z,1009.7
2017-08-05T09:06:38.888Z,1009.7
2017-08-05T09:07:40.376Z,1009.8
2017-08-05T09:08:41.792Z,1009.9
2017-08-05T09:09:43.198Z,1010.1
2017-08-05T09:10:45.721Z,1010.3
2017-08-05T09:11:47.188Z,1010.4
2017-08-05T09:12:48.605Z,1010.5
2017-08-05T09:13:50.013Z,1010.6
2017-08-05T09:14:51.516Z,1010.7
2017-08-05T09:15:52.923Z,1010.8
2017-08-05T09:16:54.431Z,1010.8
2017-08-05T09:17:55.838Z,1010.9
2017-08-05T09:18:57.486Z,1010.8
2017-08-05T09:19:58.890Z,1010.8
2017-08-05T09:21:00.363Z,1010.9
2017-08-05T09:22:01.773Z,1011.0
2017-08-05T09:23:03.244Z,1011.0
2017-08-05T09:24:04.650Z,1011.1
2017-08-05T09:25:06.124Z,1011.1
2017-08-05T09:26:07.544Z,1011.1
2017-08-05T09:27:09.004Z,1011.1
2017-08-05T09:28:10.415Z,1011.1
2017-08-05T09:29:12.236Z,1011.2
2017-08-05T09:30:13.735Z,1011.3
2017-08-05T09:31:15.147Z,1011.4
2017-08-05T09:32:16.550Z,1011.4
2017-08-05T09:33:18.056Z,1011.4
2017-08-05T09:34:19.464Z,1011.4
2017-08-05T09:35:20.956Z,1011.5
2017-08-05T09:36:22.412Z,1011.7
2017-08-05T09:37:24.057Z,1011.9
2017-08-05T09:38:25.461Z,1012.0
2017-08-05T09:39:27.098Z,1012.0
2017-08-05T09:40:28.842Z,1011.9
2017-08-05T09:41:30.534Z,1011.9
2017-08-05T09:42:32.791Z,1011.9
2017-08-05T09:43:34.625Z,1011.8
2017-08-05T09:44:37.648Z,1011.7
2017-08-05T09:45:39.379Z,1011.6
2017-08-05T09:46:41.366Z,1011.6
2017-08-05T09:47:43.135Z,1011.6
2017-08-05T09:48:45.164Z,1011.5
2017-08-05T09:49:49.891Z,1011.5
2017-08-05T09:50:51.200Z,1011.5
2017-08-05T09:51:52.791Z,1011.4
2017-08-05T09:52:54.198Z,1011.4
2017-08-05T09:53:55.607Z,1011.4
2017-08-05T09:54:57.089Z,1011.4
2017-08-05T09:55:58.496Z,1011.4
2017-08-05T09:56:59.910Z,1011.4
2017-08-05T09:58:01.435Z,1011.4
2017-08-05T09:59:02.842Z,1011.4
2017-08-05T10:00:04.253Z,1011.4
2017-08-05T10:01:05.755Z,1011.4
2017-08-05T10:02:07.539Z,1011.5
2017-08-05T10:03:08.970Z,1011.4
2017-08-05T10:04:10.486Z,1011.4
2017-08-05T10:05:12.299Z,1011.4
2017-08-05T10:06:13.710Z,1011.4
2017-08-05T10:07:15.215Z,1011.5
2017-08-05T10:08:16.620Z,1011.5
2017-08-05T10:09:18.031Z,1011.5
2017-08-05T10:10:19.536Z,1011.4
2017-08-05T10:11:20.944Z,1011.5
2017-08-05T10:12:22.417Z,1011.5
2017-08-05T10:13:23.826Z,1011.5
2017-08-05T10:14:25.300Z,1011.5
2017-08-05T10:15:26.705Z,1011.5
2017-08-05T10:16:28.177Z,1011.4
2017-08-05T10:17:29.587Z,1011.3
2017-08-05T10:18:31.090Z,1011.2
2017-08-05T10:19:32.519Z,1011.1
2017-08-05T10:20:33.919Z,1011.1
2017-08-05T10:21:35.417Z,1011.1
2017-08-05T10:22:36.827Z,1011.0
2017-08-05T10:23:38.242Z,1010.9
2017-08-05T10:24:39.703Z,1011.0
2017-08-05T10:25:41.110Z,1010.9
2017-08-05T10:26:42.524Z,1010.8
2017-08-05T10:27:44.026Z,1010.7
2017-08-05T10:28:45.433Z,1010.7
2017-08-05T10:29:46.838Z,1010.6
2017-08-05T10:30:48.374Z,1010.6
2017-08-05T10:31:50.154Z,1010.7
2017-08-05T10:32:51.563Z,1010.8
2017-08-05T10:33:53.077Z,1010.9
2017-08-05T10:34:54.494Z,1011.0
2017-08-05T10:35:55.911Z,1011.0
2017-08-05T10:36:57.420Z,1011.1
2017-08-05T10:37:58.830Z,1011.1
2017-08-05T10:39:00.245Z,1011.0
2017-08-05T10:40:01.717Z,1011.1
2017-08-05T10:41:03.137Z,1011.1
2017-08-05T10:42:04.832Z,1011.2
2017-08-05T10:43:06.541Z,1011.3
2017-08-05T10:44:08.089Z,1011.3
2017-08-05T10:45:09.556Z,1011.4
2017-08-05T10:46:11.181Z,1011.5
2017-08-05T10:47:12.599Z,1011.7
2017-08-05T10:48:14.059Z,1011.9
2017-08-05T10:49:15.478Z,1012.2
2017-08-05T10:50:16.909Z,1012.3
2017-08-05T10:51:18.384Z,1012.4
2017-08-05T10:52:19.863Z,1012.6
2017-08-05T10:53:21.281Z,1012.8
2017-08-05T10:54:22.931Z,1013.1
2017-08-05T10:55:24.373Z,1013.3
2017-08-05T10:56:25.806Z,1013.9
2017-08-05T10:57:27.434Z,1014.9
2017-08-05T10:58:28.846Z,1015.6
2017-08-05T10:59:30.258Z,1015.9
2017-08-05T11:00:31.763Z,1016.0
2017-08-05T11:01:33.180Z,1016.1
2017-08-05T11:02:34.656Z,1016.5
2017-08-05T11:03:36.084Z,1016.7
2017-08-05T11:04:37.624Z,1016.9
2017-08-05T11:05:39.338Z,1017.0
2017-08-05T11:06:40.872Z,1017.1
2017-08-05T11:07:42.429Z,1017.2
2017-08-05T11:08:44.030Z,1017.3
2017-08-05T11:09:45.561Z,1017.5
2017-08-05T11:10:47.353Z,1017.7
2017-08-05T11:11:48.900Z,1017.8
2017-08-05T11:12:50.575Z,1017.7
2017-08-05T11:13:52.135Z,1017.8
2017-08-05T11:14:53.657Z,1017.8
2017-08-05T11:15:55.355Z,1017.7
2017-08-05T11:16:56.904Z,1017.8
2017-08-05T11:17:58.439Z,1017.7
2017-08-05T11:19:00.012Z,1017.5
2017-08-05T11:20:01.589Z,1017.3
2017-08-05T11:21:03.175Z,1016.9
2017-08-05T11:22:04.737Z,1016.9
2017-08-05T11:23:06.853Z,1016.8
2017-08-05T11:24:08.330Z,1017.0
2017-08-05T11:25:09.887Z,1017.1
2017-08-05T11:26:11.611Z,1017.2
2017-08-05T11:27:13.139Z,1017.1
2017-08-05T11:28:14.659Z,1016.9
2017-08-05T11:29:16.434Z,1016.9
2017-08-05T11:30:18.009Z,1016.7
2017-08-05T11:31:19.613Z,1016.8
2017-08-05T11:32:21.207Z,1016.8
2017-08-05T11:33:22.945Z,1017.0
2017-08-05T11:34:24.469Z,1017.1
2017-08-05T11:35:26.026Z,1016.9
2017-08-05T11:36:27.757Z,1016.9
2017-08-05T11:37:29.385Z,1016.8
2017-08-05T11:38:30.918Z,1016.7
2017-08-05T11:39:32.637Z,1016.5
2017-08-05T11:40:34.189Z,1016.3
2017-08-05T11:41:35.847Z,1016.1
2017-08-05T11:42:37.624Z,1015.8
2017-08-05T11:43:39.170Z,1015.7
2017-08-05T11:44:40.747Z,1015.5
2017-08-05T11:45:42.318Z,1015.4
2017-08-05T11:46:44.169Z,1015.1
2017-08-05T11:47:45.722Z,1015.0
2017-08-05T11:48:47.440Z,1014.8
2017-08-05T11:49:49.018Z,1014.6
2017-08-05T11:50:50.571Z,1014.3
2017-08-05T11:51:52.399Z,1014.0
2017-08-05T11:52:53.949Z,1013.8
2017-08-05T11:53:55.381Z,1013.6
2017-08-05T11:54:57.041Z,1013.4
2017-08-05T11:55:58.465Z,1013.3
2017-08-05T11:56:59.878Z,1013.0
2017-08-05T11:58:01.523Z,1012.8
2017-08-05T11:59:02.938Z,1012.6
2017-08-05T12:00:04.346Z,1012.3
2017-08-05T12:01:06.048Z,1012.2
2017-08-05T12:02:07.463Z,1012.1
2017-08-05T12:03:08.871Z,1011.9
2017-08-05T12:04:10.592Z,1011.8
2017-08-05T12:05:12.031Z,1011.7
2017-08-05T12:06:13.573Z,1011.6
2017-08-05T12:07:15.220Z,1011.6
2017-08-05T12:08:16.975Z,1011.6
2017-08-05T12:09:18.551Z,1011.5
2017-08-05T12:10:20.255Z,1011.5
2017-08-05T12:11:21.792Z,1011.6
2017-08-05T12:12:23.664Z,1011.6
2017-08-05T12:13:25.245Z,1011.7
2017-08-05T12:14:26.963Z,1012.2
2017-08-05T12:15:28.503Z,1012.4
2017-08-05T12:16:30.447Z,1012.5
2017-08-05T12:17:32.038Z,1012.8
2017-08-05T12:18:33.742Z,1013.3
2017-08-05T12:19:35.329Z,1013.9
2017-08-05T12:20:37.041Z,1014.5
2017-08-05T12:21:38.927Z,1015.8
2017-08-05T12:22:40.491Z,1017.0
2017-08-05T12:23:42.033Z,1019.0
2017-08-05T12:24:44.047Z,1020.3
2017-08-05T12:25:45.568Z,1019.9
2017-08-05T12:26:47.351Z,1019.9
2017-08-05T12:27:49.332Z,1019.8
2017-08-05T12:28:51.295Z,1019.8
2017-08-05T12:29:52.820Z,1020.4
2017-08-05T12:30:54.655Z,1023.3
2017-08-05T12:31:56.192Z,1022.4
2017-08-05T12:32:57.994Z,1022.1
2017-08-05T12:33:59.519Z,1022.0
2017-08-05T12:35:01.085Z,1021.4
2017-08-05T12:36:02.913Z,1022.1
2017-08-05T12:37:05.499Z,1021.8
2017-08-05T12:38:07.114Z,1021.6
2017-08-05T12:39:10.644Z,1021.6
2017-08-05T12:40:13.919Z,1021.9
2017-08-05T12:41:15.328Z,1022.3
2017-08-05T12:42:17.152Z,1027.8
2017-08-05T12:43:18.730Z,1026.9
2017-08-05T12:44:20.431Z,1031.6
2017-08-05T12:46:40.160Z,1034.5
2017-08-05T12:47:41.846Z,1034.2
2017-08-05T12:48:43.295Z,1033.9